»·PEaware :: N416JK KALW-8W5

N416JK :: KALW-8W5

FLIGHT INFORMATION

Flight Status: Arrived
Operator: Privately registered:
United States
More flights under this callsign
Pilot: John K. (4202)
Aircraft: Unknown
(EPIC)
More flights by this aircraft type
Origin: KALW Walla Walla Regl
United States
Destination: 8W5 Apex Airpark
United States
More flights between these airports :: More routes between these airports
Route: LYLES V520 PSC V204 YKM V4 SEA
File this flight plan on PilotEdge
Remarks:
Altitude:
(Current/Filed)
12,000ft
Speed:
(Current/Filed)
300kts
Departed: 15-May-20 09:30 AM
Arrived: 15-May-20 10:21 AM
Distance/Time
Traveled:
205nm/0:51
Distance/Time
To Go:
Arrived

Flight Plot

Page will automatically refresh every two minutes.

Flight plan parsing failed; only flown route is shown


Map Options




Map Legend


Flown Route
Filed Route
Departure Airport
Arrival Airport
Navaid (VOR, NDB)
Fix

Horizontal Profiles

Position Reports

Time Latitude Longitude Heading Altitude Ground
Speed
15-May-20 09:23 46.094621 -118.278632 305 1194ft 0kts
15-May-20 09:24 46.094621 -118.278633 305 1194ft 0kts
15-May-20 09:25 46.094621 -118.278633 305 1194ft 0kts
15-May-20 09:26 46.098007 -118.276061 1 1198ft 0kts
15-May-20 09:27 46.098008 -118.276061 0 1198ft 0kts
15-May-20 09:28 46.098272 -118.276075 356 1197ft 22kts
15-May-20 09:29 46.075305 -118.308193 244 1382ft 200kts
15-May-20 09:30 46.102399 -118.376984 299 2484ft 197kts
15-May-20 09:31 46.124021 -118.446775 285 4176ft 190kts
15-May-20 09:32 46.139970 -118.519048 283 5866ft 190kts
15-May-20 09:33 46.154624 -118.590447 283 7555ft 185kts
15-May-20 09:34 46.168818 -118.657146 285 9151ft 186kts
15-May-20 09:35 46.184797 -118.729163 287 10871ft 206kts
15-May-20 09:36 46.204428 -118.817766 288 11984ft 264kts
15-May-20 09:37 46.228659 -118.927331 288 11983ft 300kts
15-May-20 09:38 46.254407 -119.044471 288 11982ft 309kts
15-May-20 09:39 46.281009 -119.164013 289 11982ft 311kts
15-May-20 09:40 46.308475 -119.284640 289 12134ft 315kts
15-May-20 09:41 46.335532 -119.404077 289 11971ft 302kts
15-May-20 09:42 46.361772 -119.520510 289 12005ft 301kts
15-May-20 09:43 46.387672 -119.636231 289 12008ft 302kts
15-May-20 09:44 46.413416 -119.751851 288 12009ft 302kts
15-May-20 09:45 46.439293 -119.868354 289 12009ft 302kts
15-May-20 09:46 46.465882 -119.984195 288 12009ft 302kts
15-May-20 09:47 46.492593 -120.101212 288 12008ft 302kts
15-May-20 09:48 46.518972 -120.217383 288 12008ft 302kts
15-May-20 09:49 46.544743 -120.331453 288 11999ft 302kts
15-May-20 09:50 46.567999 -120.435002 288 11999ft 302kts
15-May-20 09:51 46.614995 -120.538114 305 11995ft 302kts
15-May-20 09:53 46.663933 -120.640582 305 11999ft 302kts
15-May-20 09:54 46.712300 -120.742457 304 12000ft 302kts
15-May-20 09:55 46.759951 -120.842950 304 11996ft 303kts
15-May-20 09:56 46.807850 -120.944406 304 11981ft 301kts
15-May-20 09:57 46.844130 -121.021515 304 11981ft 301kts
15-May-20 09:58 46.891785 -121.123103 304 11981ft 301kts
15-May-20 09:59 46.939047 -121.224251 304 12026ft 300kts
15-May-20 10:00 46.985969 -121.325050 304 12026ft 300kts
15-May-20 10:01 47.032959 -121.426301 304 12026ft 301kts
15-May-20 10:02 47.080115 -121.528350 304 12026ft 303kts
15-May-20 10:03 47.127136 -121.630556 304 12027ft 305kts
15-May-20 10:04 47.175433 -121.735936 303 12028ft 305kts
15-May-20 10:05 47.222937 -121.839949 303 12027ft 307kts
15-May-20 10:06 47.270467 -121.944294 303 12055ft 306kts
15-May-20 10:06 47.310023 -122.031400 303 12055ft 306kts
15-May-20 10:08 47.365086 -122.153298 303 12054ft 306kts
15-May-20 10:09 47.412254 -122.258188 303 11999ft 306kts
15-May-20 10:09 47.453381 -122.344202 307 11999ft 307kts
15-May-20 10:10 47.519666 -122.421399 325 10983ft 298kts
15-May-20 10:12 47.583675 -122.485814 325 9498ft 263kts
15-May-20 10:12 47.631590 -122.534819 325 8221ft 237kts
15-May-20 10:13 47.684645 -122.589070 325 6691ft 222kts
15-May-20 10:14 47.734814 -122.639122 338 4995ft 190kts
15-May-20 10:15 47.773354 -122.672043 244 1911ft 160kts
15-May-20 10:16 47.742165 -122.688399 196 1265ft 110kts
15-May-20 10:17 47.713687 -122.707271 203 1013ft 82kts
15-May-20 10:18 47.689872 -122.714482 196 892ft 95kts
15-May-20 10:19 47.664759 -122.731174 196 645ft 95kts
15-May-20 10:20 47.653694 -122.733431 357 495ft 4kts
15-May-20 10:21 47.654184 -122.733380 11 498ft 0kts

Navigation Log

Ident Type
Flight plan parsing failed, navigation log unavailable